sensor_id;sensor_type;location;lat;lon;timestamp;temperature;humidity
25328;DHT22;13279;51.300;12.394;2023-04-03T00:00:53;2.70;1.00
25328;DHT22;13279;51.300;12.394;2023-04-03T00:03:21;2.80;1.00
25328;DHT22;13279;51.300;12.394;2023-04-03T00:05:49;2.80;1.00
25328;DHT22;13279;51.300;12.394;2023-04-03T00:08:17;2.70;1.00
25328;DHT22;13279;51.300;12.394;2023-04-03T00:10:46;2.70;1.00
25328;DHT22;13279;51.300;12.394;2023-04-03T00:13:14;2.70;1.00
25328;DHT22;13279;51.300;12.394;2023-04-03T00:15:42;2.70;1.00
25328;DHT22;13279;51.300;12.394;2023-04-03T00:18:09;2.70;1.00
25328;DHT22;13279;51.300;12.394;2023-04-03T00:20:37;2.70;1.00
25328;DHT22;13279;51.300;12.394;2023-04-03T00:23:05;2.70;1.00
25328;DHT22;13279;51.300;12.394;2023-04-03T00:25:33;2.60;1.00
25328;DHT22;13279;51.300;12.394;2023-04-03T00:28:03;2.60;1.00
25328;DHT22;13279;51.300;12.394;2023-04-03T00:30:31;2.60;1.00
25328;DHT22;13279;51.300;12.394;2023-04-03T00:32:59;2.60;1.00
25328;DHT22;13279;51.300;12.394;2023-04-03T00:35:27;2.60;1.00
25328;DHT22;13279;51.300;12.394;2023-04-03T00:37:55;2.50;1.00
25328;DHT22;13279;51.300;12.394;2023-04-03T00:40:24;2.50;1.00
25328;DHT22;13279;51.300;12.394;2023-04-03T00:42:56;2.50;1.00
25328;DHT22;13279;51.300;12.394;2023-04-03T00:45:34;2.50;1.00
25328;DHT22;13279;51.300;12.394;2023-04-03T00:48:04;2.40;1.00
25328;DHT22;13279;51.300;12.394;2023-04-03T00:50:35;2.40;1.00
25328;DHT22;13279;51.300;12.394;2023-04-03T00:53:04;2.40;1.00
25328;DHT22;13279;51.300;12.394;2023-04-03T00:55:32;2.30;1.00
25328;DHT22;13279;51.300;12.394;2023-04-03T00:58:01;2.30;1.00
25328;DHT22;13279;51.300;12.394;2023-04-03T01:00:31;2.20;1.00
25328;DHT22;13279;51.300;12.394;2023-04-03T01:02:59;2.20;1.00
25328;DHT22;13279;51.300;12.394;2023-04-03T01:05:27;2.20;1.00
25328;DHT22;13279;51.300;12.394;2023-04-03T01:07:56;2.20;1.00
25328;DHT22;13279;51.300;12.394;2023-04-03T01:10:24;2.10;1.00
25328;DHT22;13279;51.300;12.394;2023-04-03T01:12:52;2.10;1.00
25328;DHT22;13279;51.300;12.394;2023-04-03T01:15:22;2.00;1.00
25328;DHT22;13279;51.300;12.394;2023-04-03T01:17:52;2.00;1.00
25328;DHT22;13279;51.300;12.394;2023-04-03T01:20:47;2.00;1.00
25328;DHT22;13279;51.300;12.394;2023-04-03T01:26:09;1.90;1.00
25328;DHT22;13279;51.300;12.394;2023-04-03T01:28:38;1.80;1.00
25328;DHT22;13279;51.300;12.394;2023-04-03T01:31:13;1.80;1.00
25328;DHT22;13279;51.300;12.394;2023-04-03T01:33:45;1.70;1.00
25328;DHT22;13279;51.300;12.394;2023-04-03T01:36:15;1.70;1.00
25328;DHT22;13279;51.300;12.394;2023-04-03T01:38:43;1.60;1.00
25328;DHT22;13279;51.300;12.394;2023-04-03T01:41:12;1.60;1.00
25328;DHT22;13279;51.300;12.394;2023-04-03T01:43:40;1.60;1.00
25328;DHT22;13279;51.300;12.394;2023-04-03T01:46:08;1.50;1.00
25328;DHT22;13279;51.300;12.394;2023-04-03T01:48:36;1.50;1.00
25328;DHT22;13279;51.300;12.394;2023-04-03T01:51:05;1.40;1.00
25328;DHT22;13279;51.300;12.394;2023-04-03T01:53:32;1.40;1.00
25328;DHT22;13279;51.300;12.394;2023-04-03T01:56:00;1.30;1.00
25328;DHT22;13279;51.300;12.394;2023-04-03T01:58:30;1.30;1.00
25328;DHT22;13279;51.300;12.394;2023-04-03T02:00:58;1.30;1.00
25328;DHT22;13279;51.300;12.394;2023-04-03T02:03:26;1.30;1.00
25328;DHT22;13279;51.300;12.394;2023-04-03T02:05:54;1.20;1.00
25328;DHT22;13279;51.300;12.394;2023-04-03T02:08:23;1.20;1.00
25328;DHT22;13279;51.300;12.394;2023-04-03T02:10:51;1.20;1.00
25328;DHT22;13279;51.300;12.394;2023-04-03T02:13:18;1.20;1.00
25328;DHT22;13279;51.300;12.394;2023-04-03T02:15:46;1.20;1.00
25328;DHT22;13279;51.300;12.394;2023-04-03T02:18:16;1.20;1.00
25328;DHT22;13279;51.300;12.394;2023-04-03T02:20:44;1.20;1.00
25328;DHT22;13279;51.300;12.394;2023-04-03T02:23:11;1.20;1.00
25328;DHT22;13279;51.300;12.394;2023-04-03T02:25:40;1.20;1.00
25328;DHT22;13279;51.300;12.394;2023-04-03T02:28:08;1.10;1.00
25328;DHT22;13279;51.300;12.394;2023-04-03T02:30:36;1.20;1.00
25328;DHT22;13279;51.300;12.394;2023-04-03T02:33:04;1.20;1.00
25328;DHT22;13279;51.300;12.394;2023-04-03T02:35:32;1.20;1.00
25328;DHT22;13279;51.300;12.394;2023-04-03T02:38:00;1.10;1.00
25328;DHT22;13279;51.300;12.394;2023-04-03T02:40:27;1.10;1.00
25328;DHT22;13279;51.300;12.394;2023-04-03T02:42:57;1.10;1.00
25328;DHT22;13279;51.300;12.394;2023-04-03T02:45:25;1.10;1.00
25328;DHT22;13279;51.300;12.394;2023-04-03T02:47:53;1.00;1.00
25328;DHT22;13279;51.300;12.394;2023-04-03T02:50:20;1.00;1.00
25328;DHT22;13279;51.300;12.394;2023-04-03T02:52:48;0.90;1.00
25328;DHT22;13279;51.300;12.394;2023-04-03T02:55:16;1.00;1.90
25328;DHT22;13279;51.300;12.394;2023-04-03T02:57:46;0.90;1.00
25328;DHT22;13279;51.300;12.394;2023-04-03T03:00:16;0.90;1.00
25328;DHT22;13279;51.300;12.394;2023-04-03T03:02:44;0.90;6.70
25328;DHT22;13279;51.300;12.394;2023-04-03T03:05:12;0.80;13.90
25328;DHT22;13279;51.300;12.394;2023-04-03T03:07:39;0.80;23.00
25328;DHT22;13279;51.300;12.394;2023-04-03T03:10:08;0.70;24.30
25328;DHT22;13279;51.300;12.394;2023-04-03T03:12:35;0.60;42.50
25328;DHT22;13279;51.300;12.394;2023-04-03T03:15:03;0.60;53.20
25328;DHT22;13279;51.300;12.394;2023-04-03T03:17:33;0.60;61.30
25328;DHT22;13279;51.300;12.394;2023-04-03T03:20:01;0.60;67.90
25328;DHT22;13279;51.300;12.394;2023-04-03T03:22:29;0.50;69.00
25328;DHT22;13279;51.300;12.394;2023-04-03T03:24:57;0.50;83.70
25328;DHT22;13279;51.300;12.394;2023-04-03T03:27:25;0.40;95.90
25328;DHT22;13279;51.300;12.394;2023-04-03T03:29:53;0.40;96.80
25328;DHT22;13279;51.300;12.394;2023-04-03T03:32:27;0.40;99.90
25328;DHT22;13279;51.300;12.394;2023-04-03T03:35:10;0.40;99.90
25328;DHT22;13279;51.300;12.394;2023-04-03T03:37:40;0.40;99.90
25328;DHT22;13279;51.300;12.394;2023-04-03T03:40:09;0.30;99.90
25328;DHT22;13279;51.300;12.394;2023-04-03T03:42:39;0.30;99.90
25328;DHT22;13279;51.300;12.394;2023-04-03T03:45:08;0.30;99.90
25328;DHT22;13279;51.300;12.394;2023-04-03T03:47:36;0.20;99.90
25328;DHT22;13279;51.300;12.394;2023-04-03T03:50:06;0.20;99.90
25328;DHT22;13279;51.300;12.394;2023-04-03T03:52:34;0.20;99.90
25328;DHT22;13279;51.300;12.394;2023-04-03T03:55:02;0.20;99.90
25328;DHT22;13279;51.300;12.394;2023-04-03T03:57:30;0.20;99.90
25328;DHT22;13279;51.300;12.394;2023-04-03T03:59:58;0.10;99.90
25328;DHT22;13279;51.300;12.394;2023-04-03T04:02:26;0.10;99.90
25328;DHT22;13279;51.300;12.394;2023-04-03T04:04:54;0.10;99.90
25328;DHT22;13279;51.300;12.394;2023-04-03T04:07:23;0.00;99.90
25328;DHT22;13279;51.300;12.394;2023-04-03T04:09:54;0.10;99.90
25328;DHT22;13279;51.300;12.394;2023-04-03T04:12:22;0.00;99.90
25328;DHT22;13279;51.300;12.394;2023-04-03T04:14:49;0.00;99.90
25328;DHT22;13279;51.300;12.394;2023-04-03T04:17:16;0.00;99.90
25328;DHT22;13279;51.300;12.394;2023-04-03T04:19:44;0.00;99.90
25328;DHT22;13279;51.300;12.394;2023-04-03T04:22:12;0.00;99.90
25328;DHT22;13279;51.300;12.394;2023-04-03T04:24:41;0.00;99.90
25328;DHT22;13279;51.300;12.394;2023-04-03T04:27:09;0.00;99.90
25328;DHT22;13279;51.300;12.394;2023-04-03T04:29:36;-0.10;99.90
25328;DHT22;13279;51.300;12.394;2023-04-03T04:32:06;0.00;99.90
25328;DHT22;13279;51.300;12.394;2023-04-03T04:34:35;-0.10;99.90
25328;DHT22;13279;51.300;12.394;2023-04-03T04:37:02;-0.10;99.90
25328;DHT22;13279;51.300;12.394;2023-04-03T04:39:31;-0.10;99.90
25328;DHT22;13279;51.300;12.394;2023-04-03T04:42:00;-0.20;99.90
25328;DHT22;13279;51.300;12.394;2023-04-03T04:44:30;-0.10;99.90
25328;DHT22;13279;51.300;12.394;2023-04-03T04:46:58;-0.20;99.90
25328;DHT22;13279;51.300;12.394;2023-04-03T04:49:27;-0.20;99.90
25328;DHT22;13279;51.300;12.394;2023-04-03T04:51:55;-0.20;99.90
25328;DHT22;13279;51.300;12.394;2023-04-03T04:54:27;-0.20;99.90
25328;DHT22;13279;51.300;12.394;2023-04-03T04:56:55;-0.20;99.90
25328;DHT22;13279;51.300;12.394;2023-04-03T04:59:24;-0.20;99.90
25328;DHT22;13279;51.300;12.394;2023-04-03T05:01:54;-0.20;99.90
25328;DHT22;13279;51.300;12.394;2023-04-03T05:04:21;-0.20;99.90
25328;DHT22;13279;51.300;12.394;2023-04-03T05:06:54;-0.20;99.90
25328;DHT22;13279;51.300;12.394;2023-04-03T05:09:25;-0.20;99.90
25328;DHT22;13279;51.300;12.394;2023-04-03T05:11:53;-0.20;99.90
25328;DHT22;13279;51.300;12.394;2023-04-03T05:14:25;-0.20;99.90
25328;DHT22;13279;51.300;12.394;2023-04-03T05:16:55;-0.20;99.90
25328;DHT22;13279;51.300;12.394;2023-04-03T05:19:27;-0.20;99.90
25328;DHT22;13279;51.300;12.394;2023-04-03T05:21:56;-0.20;99.90
25328;DHT22;13279;51.300;12.394;2023-04-03T05:24:23;-0.20;99.90
25328;DHT22;13279;51.300;12.394;2023-04-03T05:26:52;-0.20;99.90
25328;DHT22;13279;51.300;12.394;2023-04-03T05:29:20;-0.20;99.90
25328;DHT22;13279;51.300;12.394;2023-04-03T05:31:50;-0.10;99.90
25328;DHT22;13279;51.300;12.394;2023-04-03T05:34:18;-0.10;99.90
25328;DHT22;13279;51.300;12.394;2023-04-03T05:36:48;-0.10;99.90
25328;DHT22;13279;51.300;12.394;2023-04-03T05:39:16;-0.10;99.90
25328;DHT22;13279;51.300;12.394;2023-04-03T05:41:46;-0.10;99.90
25328;DHT22;13279;51.300;12.394;2023-04-03T05:44:13;0.00;99.90
25328;DHT22;13279;51.300;12.394;2023-04-03T05:46:43;0.00;93.00
25328;DHT22;13279;51.300;12.394;2023-04-03T05:49:13;0.00;77.20
25328;DHT22;13279;51.300;12.394;2023-04-03T05:51:41;0.10;70.10
25328;DHT22;13279;51.300;12.394;2023-04-03T05:54:24;0.10;68.80
25328;DHT22;13279;51.300;12.394;2023-04-03T05:56:58;0.20;58.90
25328;DHT22;13279;51.300;12.394;2023-04-03T05:59:26;0.20;27.60
25328;DHT22;13279;51.300;12.394;2023-04-03T06:01:56;0.20;32.70
25328;DHT22;13279;51.300;12.394;2023-04-03T06:04:26;0.30;25.00
25328;DHT22;13279;51.300;12.394;2023-04-03T06:06:56;0.30;13.20
25328;DHT22;13279;51.300;12.394;2023-04-03T06:09:27;0.30;1.00
25328;DHT22;13279;51.300;12.394;2023-04-03T06:11:56;0.40;1.00
25328;DHT22;13279;51.300;12.394;2023-04-03T06:14:25;0.40;1.00
25328;DHT22;13279;51.300;12.394;2023-04-03T06:16:52;0.50;1.00
25328;DHT22;13279;51.300;12.394;2023-04-03T06:19:21;0.50;1.00
25328;DHT22;13279;51.300;12.394;2023-04-03T06:21:55;0.50;1.00
25328;DHT22;13279;51.300;12.394;2023-04-03T06:24:23;0.60;1.00
25328;DHT22;13279;51.300;12.394;2023-04-03T06:26:52;0.60;1.00
25328;DHT22;13279;51.300;12.394;2023-04-03T06:29:20;0.70;1.00
25328;DHT22;13279;51.300;12.394;2023-04-03T06:31:48;0.70;1.00
25328;DHT22;13279;51.300;12.394;2023-04-03T06:34:16;0.80;1.00
25328;DHT22;13279;51.300;12.394;2023-04-03T06:36:44;0.80;1.00
25328;DHT22;13279;51.300;12.394;2023-04-03T06:39:15;0.90;1.00
25328;DHT22;13279;51.300;12.394;2023-04-03T06:41:43;1.10;1.00
25328;DHT22;13279;51.300;12.394;2023-04-03T06:44:11;1.20;1.00
25328;DHT22;13279;51.300;12.394;2023-04-03T06:46:42;1.40;1.00
25328;DHT22;13279;51.300;12.394;2023-04-03T06:49:10;1.60;1.00
25328;DHT22;13279;51.300;12.394;2023-04-03T06:51:38;1.70;1.00
25328;DHT22;13279;51.300;12.394;2023-04-03T06:54:06;1.70;1.00
25328;DHT22;13279;51.300;12.394;2023-04-03T06:56:35;1.80;1.00
25328;DHT22;13279;51.300;12.394;2023-04-03T06:59:03;1.90;1.00
25328;DHT22;13279;51.300;12.394;2023-04-03T07:01:31;2.10;1.00
25328;DHT22;13279;51.300;12.394;2023-04-03T07:03:58;2.10;1.00
25328;DHT22;13279;51.300;12.394;2023-04-03T07:06:26;2.10;1.00
25328;DHT22;13279;51.300;12.394;2023-04-03T07:08:54;2.20;1.00
25328;DHT22;13279;51.300;12.394;2023-04-03T07:11:22;2.30;1.00
25328;DHT22;13279;51.300;12.394;2023-04-03T07:13:52;2.40;99.90
25328;DHT22;13279;51.300;12.394;2023-04-03T07:16:20;2.60;99.90
25328;DHT22;13279;51.300;12.394;2023-04-03T07:18:47;2.70;99.90
25328;DHT22;13279;51.300;12.394;2023-04-03T07:21:15;2.80;99.90
25328;DHT22;13279;51.300;12.394;2023-04-03T07:23:43;2.70;99.90
25328;DHT22;13279;51.300;12.394;2023-04-03T07:26:11;2.90;99.90
25328;DHT22;13279;51.300;12.394;2023-04-03T07:28:39;3.00;1.00
25328;DHT22;13279;51.300;12.394;2023-04-03T07:31:11;2.90;99.90
25328;DHT22;13279;51.300;12.394;2023-04-03T07:33:39;3.20;99.90
25328;DHT22;13279;51.300;12.394;2023-04-03T07:36:08;3.30;99.90
25328;DHT22;13279;51.300;12.394;2023-04-03T07:38:37;3.50;99.90
25328;DHT22;13279;51.300;12.394;2023-04-03T07:41:04;3.50;99.90
25328;DHT22;13279;51.300;12.394;2023-04-03T07:43:32;3.40;99.90
25328;DHT22;13279;51.300;12.394;2023-04-03T07:46:00;3.40;99.90
25328;DHT22;13279;51.300;12.394;2023-04-03T07:48:29;3.40;99.90
25328;DHT22;13279;51.300;12.394;2023-04-03T07:50:59;3.50;99.90
25328;DHT22;13279;51.300;12.394;2023-04-03T07:53:27;3.50;99.90
25328;DHT22;13279;51.300;12.394;2023-04-03T07:55:56;3.40;99.90
25328;DHT22;13279;51.300;12.394;2023-04-03T07:58:24;3.40;99.90
25328;DHT22;13279;51.300;12.394;2023-04-03T08:00:52;3.50;99.90
25328;DHT22;13279;51.300;12.394;2023-04-03T08:03:20;3.50;99.90
25328;DHT22;13279;51.300;12.394;2023-04-03T08:05:51;3.50;99.90
25328;DHT22;13279;51.300;12.394;2023-04-03T08:08:21;3.60;99.90
25328;DHT22;13279;51.300;12.394;2023-04-03T08:10:49;3.60;99.90
25328;DHT22;13279;51.300;12.394;2023-04-03T08:13:18;3.80;99.90
25328;DHT22;13279;51.300;12.394;2023-04-03T08:15:45;3.90;99.90
25328;DHT22;13279;51.300;12.394;2023-04-03T08:18:13;4.00;99.90
25328;DHT22;13279;51.300;12.394;2023-04-03T08:20:40;4.00;99.90
25328;DHT22;13279;51.300;12.394;2023-04-03T08:23:10;4.30;99.90
25328;DHT22;13279;51.300;12.394;2023-04-03T08:25:38;4.40;99.90
25328;DHT22;13279;51.300;12.394;2023-04-03T08:28:06;4.30;99.90
25328;DHT22;13279;51.300;12.394;2023-04-03T08:30:34;4.10;99.90
25328;DHT22;13279;51.300;12.394;2023-04-03T08:33:03;3.70;99.90
25328;DHT22;13279;51.300;12.394;2023-04-03T08:35:31;3.70;99.90
25328;DHT22;13279;51.300;12.394;2023-04-03T08:37:59;3.90;99.90
25328;DHT22;13279;51.300;12.394;2023-04-03T08:40:28;4.00;99.90
25328;DHT22;13279;51.300;12.394;2023-04-03T08:43:03;4.40;99.90
25328;DHT22;13279;51.300;12.394;2023-04-03T08:45:42;4.70;99.90
25328;DHT22;13279;51.300;12.394;2023-04-03T08:48:14;4.80;99.90
25328;DHT22;13279;51.300;12.394;2023-04-03T08:50:45;5.00;99.90
25328;DHT22;13279;51.300;12.394;2023-04-03T08:53:17;5.20;99.90
25328;DHT22;13279;51.300;12.394;2023-04-03T08:55:48;5.60;99.90
25328;DHT22;13279;51.300;12.394;2023-04-03T08:58:19;5.60;99.90
25328;DHT22;13279;51.300;12.394;2023-04-03T09:00:48;5.80;99.90
25328;DHT22;13279;51.300;12.394;2023-04-03T09:03:19;5.60;99.90
25328;DHT22;13279;51.300;12.394;2023-04-03T09:05:51;5.20;99.90
25328;DHT22;13279;51.300;12.394;2023-04-03T09:08:24;4.90;99.90
25328;DHT22;13279;51.300;12.394;2023-04-03T09:11:05;4.90;99.90
25328;DHT22;13279;51.300;12.394;2023-04-03T09:13:39;4.90;99.90
25328;DHT22;13279;51.300;12.394;2023-04-03T09:16:20;5.10;99.90
25328;DHT22;13279;51.300;12.394;2023-04-03T09:18:57;5.30;99.90
25328;DHT22;13279;51.300;12.394;2023-04-03T09:21:32;5.70;99.90
25328;DHT22;13279;51.300;12.394;2023-04-03T09:24:05;5.80;99.90
25328;DHT22;13279;51.300;12.394;2023-04-03T09:26:41;6.00;99.90
25328;DHT22;13279;51.300;12.394;2023-04-03T09:29:14;6.30;99.90
25328;DHT22;13279;51.300;12.394;2023-04-03T09:31:46;6.40;99.90
25328;DHT22;13279;51.300;12.394;2023-04-03T09:34:21;6.20;99.90
25328;DHT22;13279;51.300;12.394;2023-04-03T09:36:51;6.20;99.90
25328;DHT22;13279;51.300;12.394;2023-04-03T09:39:21;6.10;99.90
25328;DHT22;13279;51.300;12.394;2023-04-03T09:41:59;6.30;99.90
25328;DHT22;13279;51.300;12.394;2023-04-03T09:44:29;6.50;99.90
25328;DHT22;13279;51.300;12.394;2023-04-03T09:46:57;6.50;99.90
25328;DHT22;13279;51.300;12.394;2023-04-03T09:49:25;6.30;99.90
25328;DHT22;13279;51.300;12.394;2023-04-03T09:51:52;5.90;99.90
25328;DHT22;13279;51.300;12.394;2023-04-03T09:54:35;5.50;99.90
25328;DHT22;13279;51.300;12.394;2023-04-03T09:57:12;5.30;99.90
25328;DHT22;13279;51.300;12.394;2023-04-03T09:59:44;5.30;99.90
25328;DHT22;13279;51.300;12.394;2023-04-03T10:02:34;5.40;99.90
25328;DHT22;13279;51.300;12.394;2023-04-03T10:05:03;5.60;99.90
25328;DHT22;13279;51.300;12.394;2023-04-03T10:07:34;5.50;99.90
25328;DHT22;13279;51.300;12.394;2023-04-03T10:10:17;5.30;99.90
25328;DHT22;13279;51.300;12.394;2023-04-03T10:12:47;4.90;99.90
25328;DHT22;13279;51.300;12.394;2023-04-03T10:15:17;4.80;99.90
25328;DHT22;13279;51.300;12.394;2023-04-03T10:17:53;5.10;99.90
25328;DHT22;13279;51.300;12.394;2023-04-03T10:20:34;5.50;99.90
25328;DHT22;13279;51.300;12.394;2023-04-03T10:23:16;5.90;99.90
25328;DHT22;13279;51.300;12.394;2023-04-03T10:25:53;6.00;99.90
25328;DHT22;13279;51.300;12.394;2023-04-03T10:28:31;6.20;99.90
25328;DHT22;13279;51.300;12.394;2023-04-03T10:31:05;6.40;99.90
25328;DHT22;13279;51.300;12.394;2023-04-03T10:33:48;6.60;99.90
25328;DHT22;13279;51.300;12.394;2023-04-03T10:36:24;6.60;99.90
25328;DHT22;13279;51.300;12.394;2023-04-03T10:39:02;6.80;99.90
25328;DHT22;13279;51.300;12.394;2023-04-03T10:41:44;6.80;99.90
25328;DHT22;13279;51.300;12.394;2023-04-03T10:44:23;7.10;99.90
25328;DHT22;13279;51.300;12.394;2023-04-03T10:47:02;7.00;99.90
25328;DHT22;13279;51.300;12.394;2023-04-03T10:49:39;6.90;99.90
25328;DHT22;13279;51.300;12.394;2023-04-03T10:52:19;7.30;99.90
25328;DHT22;13279;51.300;12.394;2023-04-03T10:55:01;7.50;99.90
25328;DHT22;13279;51.300;12.394;2023-04-03T10:57:30;7.80;99.90
25328;DHT22;13279;51.300;12.394;2023-04-03T11:00:03;7.70;99.90
25328;DHT22;13279;51.300;12.394;2023-04-03T11:02:33;7.40;99.90
25328;DHT22;13279;51.300;12.394;2023-04-03T11:05:07;7.50;99.90
25328;DHT22;13279;51.300;12.394;2023-04-03T11:07:45;7.60;99.90
25328;DHT22;13279;51.300;12.394;2023-04-03T11:10:15;7.20;99.90
25328;DHT22;13279;51.300;12.394;2023-04-03T11:12:47;6.40;99.90
25328;DHT22;13279;51.300;12.394;2023-04-03T11:15:19;5.70;99.90
25328;DHT22;13279;51.300;12.394;2023-04-03T11:17:53;5.50;99.90
25328;DHT22;13279;51.300;12.394;2023-04-03T11:20:24;5.50;99.90
25328;DHT22;13279;51.300;12.394;2023-04-03T11:22:58;5.60;99.90
25328;DHT22;13279;51.300;12.394;2023-04-03T11:25:29;5.60;99.90
25328;DHT22;13279;51.300;12.394;2023-04-03T11:28:00;5.50;99.90
25328;DHT22;13279;51.300;12.394;2023-04-03T11:30:33;5.70;99.90
25328;DHT22;13279;51.300;12.394;2023-04-03T11:33:28;6.10;99.90
25328;DHT22;13279;51.300;12.394;2023-04-03T11:36:04;6.50;99.90
25328;DHT22;13279;51.300;12.394;2023-04-03T11:38:35;6.90;99.90
25328;DHT22;13279;51.300;12.394;2023-04-03T11:41:07;6.90;99.90
25328;DHT22;13279;51.300;12.394;2023-04-03T11:43:40;6.50;99.90
25328;DHT22;13279;51.300;12.394;2023-04-03T11:46:09;6.30;99.90
25328;DHT22;13279;51.300;12.394;2023-04-03T11:51:38;6.00;99.90
25328;DHT22;13279;51.300;12.394;2023-04-03T11:54:46;6.30;99.90
25328;DHT22;13279;51.300;12.394;2023-04-03T11:58:03;6.70;99.90
25328;DHT22;13279;51.300;12.394;2023-04-03T12:00:59;6.50;99.90
25328;DHT22;13279;51.300;12.394;2023-04-03T12:10:15;5.90;99.90
25328;DHT22;13279;51.300;12.394;2023-04-03T12:12:56;6.10;99.90
25328;DHT22;13279;51.300;12.394;2023-04-03T12:15:45;6.20;99.90
25328;DHT22;13279;51.300;12.394;2023-04-03T12:21:19;6.50;99.90
25328;DHT22;13279;51.300;12.394;2023-04-03T12:24:03;6.40;99.90
25328;DHT22;13279;51.300;12.394;2023-04-03T12:26:38;6.10;99.90
25328;DHT22;13279;51.300;12.394;2023-04-03T12:29:17;5.80;99.90
25328;DHT22;13279;51.300;12.394;2023-04-03T12:31:54;5.90;99.90
25328;DHT22;13279;51.300;12.394;2023-04-03T12:34:35;6.20;99.90
25328;DHT22;13279;51.300;12.394;2023-04-03T12:37:15;6.30;99.90
25328;DHT22;13279;51.300;12.394;2023-04-03T12:39:54;6.30;99.90
25328;DHT22;13279;51.300;12.394;2023-04-03T12:42:43;6.40;99.90
25328;DHT22;13279;51.300;12.394;2023-04-03T12:45:19;6.20;99.90
25328;DHT22;13279;51.300;12.394;2023-04-03T12:47:49;6.00;99.90
25328;DHT22;13279;51.300;12.394;2023-04-03T12:50:22;6.00;99.90
25328;DHT22;13279;51.300;12.394;2023-04-03T12:52:56;6.00;99.90
25328;DHT22;13279;51.300;12.394;2023-04-03T12:55:25;6.00;99.90
25328;DHT22;13279;51.300;12.394;2023-04-03T12:57:54;5.90;99.90
25328;DHT22;13279;51.300;12.394;2023-04-03T13:00:33;5.80;99.90
25328;DHT22;13279;51.300;12.394;2023-04-03T13:03:02;5.90;99.90
25328;DHT22;13279;51.300;12.394;2023-04-03T13:05:32;5.60;99.90
25328;DHT22;13279;51.300;12.394;2023-04-03T13:08:02;5.80;99.90
25328;DHT22;13279;51.300;12.394;2023-04-03T13:10:31;5.50;99.90
25328;DHT22;13279;51.300;12.394;2023-04-03T13:13:09;5.40;99.90
25328;DHT22;13279;51.300;12.394;2023-04-03T13:15:41;5.60;99.90
25328;DHT22;13279;51.300;12.394;2023-04-03T13:18:23;5.60;99.90
25328;DHT22;13279;51.300;12.394;2023-04-03T13:20:52;5.70;99.90
25328;DHT22;13279;51.300;12.394;2023-04-03T13:23:32;5.60;99.90
25328;DHT22;13279;51.300;12.394;2023-04-03T13:26:03;5.60;99.90
25328;DHT22;13279;51.300;12.394;2023-04-03T13:28:32;5.70;99.90
25328;DHT22;13279;51.300;12.394;2023-04-03T13:31:04;5.70;99.90
25328;DHT22;13279;51.300;12.394;2023-04-03T13:33:33;5.80;99.90
25328;DHT22;13279;51.300;12.394;2023-04-03T13:36:06;5.70;99.90
25328;DHT22;13279;51.300;12.394;2023-04-03T13:38:36;5.70;99.90
25328;DHT22;13279;51.300;12.394;2023-04-03T13:41:21;5.70;99.90
25328;DHT22;13279;51.300;12.394;2023-04-03T13:43:49;5.70;99.90
25328;DHT22;13279;51.300;12.394;2023-04-03T13:46:24;5.60;99.90
25328;DHT22;13279;51.300;12.394;2023-04-03T13:48:53;5.70;99.90
25328;DHT22;13279;51.300;12.394;2023-04-03T13:51:23;5.70;99.90
25328;DHT22;13279;51.300;12.394;2023-04-03T13:53:55;5.90;99.90
25328;DHT22;13279;51.300;12.394;2023-04-03T13:56:27;5.80;99.90
25328;DHT22;13279;51.300;12.394;2023-04-03T13:59:18;5.70;99.90
25328;DHT22;13279;51.300;12.394;2023-04-03T14:01:50;5.70;99.90
25328;DHT22;13279;51.300;12.394;2023-04-03T14:04:20;5.60;99.90
25328;DHT22;13279;51.300;12.394;2023-04-03T14:06:48;5.60;99.90
25328;DHT22;13279;51.300;12.394;2023-04-03T14:09:21;5.60;99.90
25328;DHT22;13279;51.300;12.394;2023-04-03T14:11:50;5.50;99.90
25328;DHT22;13279;51.300;12.394;2023-04-03T14:14:21;5.50;99.90
25328;DHT22;13279;51.300;12.394;2023-04-03T14:16:53;5.60;99.90
25328;DHT22;13279;51.300;12.394;2023-04-03T14:19:24;5.60;99.90
25328;DHT22;13279;51.300;12.394;2023-04-03T14:21:53;5.60;99.90
25328;DHT22;13279;51.300;12.394;2023-04-03T14:24:23;5.50;99.90
25328;DHT22;13279;51.300;12.394;2023-04-03T14:26:51;5.50;99.90
25328;DHT22;13279;51.300;12.394;2023-04-03T14:29:20;5.50;99.90
25328;DHT22;13279;51.300;12.394;2023-04-03T14:31:49;5.50;99.90
25328;DHT22;13279;51.300;12.394;2023-04-03T14:34:17;5.40;99.90
25328;DHT22;13279;51.300;12.394;2023-04-03T14:36:44;5.40;99.90
25328;DHT22;13279;51.300;12.394;2023-04-03T14:39:17;5.30;99.90
25328;DHT22;13279;51.300;12.394;2023-04-03T14:41:47;5.20;99.90
25328;DHT22;13279;51.300;12.394;2023-04-03T14:44:14;5.30;99.90
25328;DHT22;13279;51.300;12.394;2023-04-03T14:46:43;5.30;99.90
25328;DHT22;13279;51.300;12.394;2023-04-03T14:49:14;5.30;99.90
25328;DHT22;13279;51.300;12.394;2023-04-03T14:51:43;5.30;99.90
25328;DHT22;13279;51.300;12.394;2023-04-03T14:54:13;5.30;99.90
25328;DHT22;13279;51.300;12.394;2023-04-03T14:56:41;5.40;99.90
25328;DHT22;13279;51.300;12.394;2023-04-03T14:59:12;5.40;99.90
25328;DHT22;13279;51.300;12.394;2023-04-03T15:01:40;5.10;99.90
25328;DHT22;13279;51.300;12.394;2023-04-03T15:04:11;5.00;99.90
25328;DHT22;13279;51.300;12.394;2023-04-03T15:06:39;5.00;99.90
25328;DHT22;13279;51.300;12.394;2023-04-03T15:09:14;4.90;99.90
25328;DHT22;13279;51.300;12.394;2023-04-03T15:11:45;4.90;99.90
25328;DHT22;13279;51.300;12.394;2023-04-03T15:14:15;5.00;99.90
25328;DHT22;13279;51.300;12.394;2023-04-03T15:16:42;5.00;99.90
25328;DHT22;13279;51.300;12.394;2023-04-03T15:19:10;4.90;99.90
25328;DHT22;13279;51.300;12.394;2023-04-03T15:21:37;4.90;99.90
25328;DHT22;13279;51.300;12.394;2023-04-03T15:24:05;5.00;99.90
25328;DHT22;13279;51.300;12.394;2023-04-03T15:26:33;4.90;99.90
25328;DHT22;13279;51.300;12.394;2023-04-03T15:29:00;4.80;99.90
25328;DHT22;13279;51.300;12.394;2023-04-03T15:31:29;4.90;99.90
25328;DHT22;13279;51.300;12.394;2023-04-03T15:34:00;4.90;99.90
25328;DHT22;13279;51.300;12.394;2023-04-03T15:36:27;4.90;99.90
25328;DHT22;13279;51.300;12.394;2023-04-03T15:38:55;4.90;99.90
25328;DHT22;13279;51.300;12.394;2023-04-03T15:41:23;4.90;99.90
25328;DHT22;13279;51.300;12.394;2023-04-03T15:43:50;4.90;99.90
25328;DHT22;13279;51.300;12.394;2023-04-03T15:46:18;4.80;99.90
25328;DHT22;13279;51.300;12.394;2023-04-03T15:48:47;4.80;99.90
25328;DHT22;13279;51.300;12.394;2023-04-03T15:51:15;4.80;99.90
25328;DHT22;13279;51.300;12.394;2023-04-03T15:53:43;4.80;99.90
25328;DHT22;13279;51.300;12.394;2023-04-03T15:56:10;4.70;99.90
25328;DHT22;13279;51.300;12.394;2023-04-03T15:58:38;4.70;99.90
25328;DHT22;13279;51.300;12.394;2023-04-03T16:01:06;4.70;99.90
25328;DHT22;13279;51.300;12.394;2023-04-03T16:03:54;4.60;99.90
25328;DHT22;13279;51.300;12.394;2023-04-03T16:06:24;4.50;99.90
25328;DHT22;13279;51.300;12.394;2023-04-03T16:08:55;4.50;99.90
25328;DHT22;13279;51.300;12.394;2023-04-03T16:11:24;4.60;99.90